Time;durP1;ratioP1;P1;durP2;ratioP2;P2;SDS_P1;SDS_P2;PMS_P1;PMS_P2;Temp;Humidity;BMP_temperature;BMP_pressure;BME280_temperature;BME280_humidity;BME280_pressure;Samples;Min_cycle;Max_cycle;Signal;HPM_P1;HPM_P2
2022/04/22 00:02:09;;;;;;;8.43;6.90;;;11.30;65.20;;;;;;5075469;28;20035;-75
2022/04/22 00:04:35;;;;;;;9.30;6.88;;;11.30;65.40;;;;;;5074545;28;20020;-74
2022/04/22 00:07:01;;;;;;;7.85;6.65;;;11.30;65.30;;;;;;5077004;28;20028;-75
2022/04/22 00:09:27;;;;;;;8.25;6.82;;;11.30;65.80;;;;;;5094834;28;20068;-74
2022/04/22 00:11:52;;;;;;;8.10;6.35;;;11.30;65.70;;;;;;5095513;28;20028;-74
2022/04/22 00:14:18;;;;;;;8.52;6.28;;;11.30;66.10;;;;;;5095089;28;20056;-75
2022/04/22 00:16:44;;;;;;;9.93;6.60;;;11.30;66.20;;;;;;5095559;28;20016;-75
2022/04/22 00:19:10;;;;;;;8.85;5.80;;;11.30;66.10;;;;;;5095487;28;20032;-75
2022/04/22 00:21:36;;;;;;;7.07;5.88;;;11.30;66.50;;;;;;5069986;28;20066;-75
2022/04/22 00:24:01;;;;;;;7.72;6.00;;;11.30;66.10;;;;;;5075019;28;20067;-75
2022/04/22 00:26:27;;;;;;;8.27;6.30;;;11.30;66.40;;;;;;5074473;28;20371;-75
2022/04/22 00:28:53;;;;;;;7.32;5.57;;;11.20;66.50;;;;;;5074868;28;20027;-75
2022/04/22 00:31:19;;;;;;;7.50;5.72;;;11.20;66.90;;;;;;5055905;28;20029;-76
2022/04/22 00:33:44;;;;;;;6.20;5.60;;;11.20;67.20;;;;;;5074816;28;20067;-75
2022/04/22 00:36:10;;;;;;;9.90;5.38;;;11.20;67.60;;;;;;5056717;28;20079;-76
2022/04/22 00:38:36;;;;;;;10.35;5.82;;;11.20;68.00;;;;;;5074124;28;20032;-75
2022/04/22 00:41:02;;;;;;;7.13;5.13;;;11.20;67.90;;;;;;5074381;28;20031;-75
2022/04/22 00:43:27;;;;;;;8.45;5.85;;;11.10;68.10;;;;;;5074026;28;20027;-75
2022/04/22 00:45:54;;;;;;;8.07;5.53;;;11.10;68.60;;;;;;5074609;28;20419;-75
2022/04/22 00:48:21;;;;;;;9.10;5.97;;;11.10;69.00;;;;;;5073869;28;20037;-76
2022/04/22 00:50:48;;;;;;;7.43;5.60;;;11.10;69.30;;;;;;5074629;28;20028;-76
2022/04/22 00:53:14;;;;;;;8.90;6.35;;;11.10;69.40;;;;;;5074522;28;20536;-77
2022/04/22 00:56:00;;;;;;;9.90;5.88;;;11.00;69.30;;;;;;5073560;28;20396;-75
2022/04/22 00:58:26;;;;;;;6.45;5.70;;;10.90;69.70;;;;;;5073614;28;20051;-76
2022/04/22 01:00:51;;;;;;;8.82;5.93;;;10.90;70.00;;;;;;5074165;28;20465;-76
2022/04/22 01:03:17;;;;;;;9.57;6.65;;;10.90;70.20;;;;;;5074410;28;20029;-76
2022/04/22 01:11:13;;;;;;;7.47;6.30;;;10.80;70.40;;;;;;5072875;28;20143;-76
2022/04/22 01:13:38;;;;;;;7.85;6.65;;;10.80;70.20;;;;;;5073784;28;20036;-76
2022/04/22 01:16:04;;;;;;;7.85;6.60;;;10.80;69.90;;;;;;5074265;28;20381;-76
2022/04/22 01:18:30;;;;;;;7.97;6.68;;;10.80;69.70;;;;;;5073777;28;20071;-75
2022/04/22 01:21:01;;;;;;;9.82;7.00;;;10.70;69.80;;;;;;5074030;28;20421;-76
2022/04/22 01:23:26;;;;;;;10.15;6.68;;;10.70;69.40;;;;;;5073460;28;20299;-76
2022/04/22 01:25:53;;;;;;;9.48;6.82;;;10.70;69.10;;;;;;5056043;28;20039;-76
2022/04/22 01:28:20;;;;;;;8.82;6.93;;;10.70;68.90;;;;;;5073920;28;20020;-76
2022/04/22 01:30:46;;;;;;;11.43;6.82;;;10.70;68.90;;;;;;5072947;28;20024;-77
2022/04/22 01:33:11;;;;;;;10.68;7.07;;;10.70;68.90;;;;;;5074195;28;20465;-76
2022/04/22 01:35:37;;;;;;;11.10;7.55;;;10.60;68.30;;;;;;5073216;28;20021;-77
2022/04/22 01:38:02;;;;;;;9.07;7.28;;;10.60;68.40;;;;;;5073806;28;20307;-75
2022/04/22 01:40:29;;;;;;;9.60;6.68;;;10.50;68.90;;;;;;5073025;28;20055;-75
2022/04/22 01:42:55;;;;;;;9.25;7.10;;;10.50;69.30;;;;;;5055525;28;20377;-76
2022/04/22 01:45:21;;;;;;;9.68;7.65;;;10.50;69.10;;;;;;5055493;28;20035;-76
2022/04/22 01:47:47;;;;;;;8.82;6.45;;;10.50;69.10;;;;;;5072819;28;20111;-75
2022/04/22 01:50:12;;;;;;;10.10;7.20;;;10.40;69.20;;;;;;5055379;28;20440;-77
2022/04/22 01:52:40;;;;;;;10.50;6.72;;;10.40;69.80;;;;;;5054845;28;20025;-75
2022/04/22 01:55:06;;;;;;;10.35;7.85;;;10.30;69.60;;;;;;5073304;28;20031;-75
2022/04/22 01:57:32;;;;;;;9.65;7.32;;;10.30;70.20;;;;;;5072735;28;20454;-75
2022/04/22 01:59:59;;;;;;;8.88;7.32;;;10.30;70.30;;;;;;5072973;28;20041;-75
2022/04/22 02:02:24;;;;;;;8.82;7.03;;;10.30;70.00;;;;;;5072536;28;20028;-76
2022/04/22 02:04:50;;;;;;;10.02;7.30;;;10.30;70.20;;;;;;5073139;28;20032;-76
2022/04/22 02:07:16;;;;;;;9.25;7.03;;;10.30;70.10;;;;;;5073008;28;20421;-75
2022/04/22 02:09:41;;;;;;;9.80;7.25;;;10.30;70.00;;;;;;5072314;28;20485;-76
2022/04/22 02:12:08;;;;;;;7.40;6.60;;;10.30;69.30;;;;;;5054944;28;20025;-75
2022/04/22 02:14:33;;;;;;;9.85;7.50;;;10.40;69.20;;;;;;5072303;28;20127;-76
2022/04/22 02:16:59;;;;;;;8.48;7.25;;;10.30;68.80;;;;;;5080965;28;20031;-76
2022/04/22 02:19:25;;;;;;;9.07;7.15;;;10.30;68.60;;;;;;5072202;28;20090;-80
2022/04/22 02:21:52;;;;;;;8.95;6.75;;;10.30;68.50;;;;;;5072374;28;20036;-75
2022/04/22 02:24:18;;;;;;;11.80;6.93;;;10.30;68.40;;;;;;5054924;28;20035;-75
2022/04/22 02:29:28;;;;;;;11.45;7.40;;;10.30;68.30;;;;;;5071733;28;20078;-76
2022/04/22 02:31:53;;;;;;;8.98;6.70;;;10.30;68.20;;;;;;5072407;28;20029;-75
2022/04/22 02:34:23;;;;;;;12.73;7.65;;;10.30;68.20;;;;;;5072424;28;20035;-75
2022/04/22 02:36:50;;;;;;;12.10;7.57;;;10.30;68.30;;;;;;5071664;28;20033;-75
2022/04/22 02:39:17;;;;;;;10.02;7.38;;;10.30;68.30;;;;;;5072411;28;20028;-75
2022/04/22 02:47:12;;;;;;;10.18;7.50;;;10.40;68.20;;;;;;5072367;28;20035;-77
2022/04/22 02:49:38;;;;;;;10.57;7.43;;;10.40;68.20;;;;;;5071513;28;20028;-75
2022/04/22 02:52:04;;;;;;;12.63;8.02;;;10.50;67.70;;;;;;5072181;28;20078;-75
2022/04/22 02:54:30;;;;;;;10.40;7.55;;;10.50;67.80;;;;;;5071556;28;20112;-76
2022/04/22 02:56:57;;;;;;;10.90;8.00;;;10.50;68.00;;;;;;5054116;28;20028;-75
2022/04/22 02:59:24;;;;;;;9.90;7.28;;;10.50;67.80;;;;;;5072214;28;20032;-75
2022/04/22 03:01:49;;;;;;;9.85;7.65;;;10.50;67.80;;;;;;5071790;28;20052;-75
2022/04/22 03:04:15;;;;;;;9.00;6.85;;;10.60;67.80;;;;;;5072210;28;20035;-75
2022/04/22 03:06:41;;;;;;;10.45;7.43;;;10.60;67.70;;;;;;5071384;28;20024;-76
2022/04/22 03:09:07;;;;;;;12.65;7.82;;;10.60;67.90;;;;;;5071530;28;20127;-76
2022/04/22 03:11:34;;;;;;;12.82;8.10;;;10.60;67.40;;;;;;5053126;28;20025;-75
2022/04/22 03:14:01;;;;;;;10.10;8.30;;;10.70;67.40;;;;;;5054105;28;20043;-75
2022/04/22 03:16:27;;;;;;;11.88;8.27;;;10.60;67.20;;;;;;5071703;28;20124;-75
2022/04/22 03:18:53;;;;;;;10.90;7.93;;;10.60;67.30;;;;;;5071222;28;20031;-75
2022/04/22 03:21:19;;;;;;;10.10;8.30;;;10.60;67.00;;;;;;5053800;28;20103;-76
2022/04/22 03:23:46;;;;;;;9.63;8.02;;;10.60;67.90;;;;;;5071106;28;20043;-75
2022/04/22 03:26:12;;;;;;;10.60;8.00;;;10.70;67.80;;;;;;5071521;28;20518;-75
2022/04/22 03:28:38;;;;;;;12.35;8.20;;;10.70;67.50;;;;;;5052600;28;20063;-76
2022/04/22 03:31:04;;;;;;;11.82;7.95;;;10.70;67.60;;;;;;5053604;28;20047;-75
2022/04/22 03:33:30;;;;;;;9.43;7.32;;;10.70;67.10;;;;;;5070631;28;20474;-74
2022/04/22 03:36:14;;;;;;;9.45;7.07;;;10.70;66.90;;;;;;5071252;28;20025;-74
2022/04/22 03:38:40;;;;;;;10.05;7.82;;;10.80;67.10;;;;;;5070650;28;20469;-74
2022/04/22 03:41:06;;;;;;;15.13;8.25;;;10.80;66.90;;;;;;5053071;28;20029;-75
2022/04/22 03:43:32;;;;;;;9.68;8.63;;;10.80;66.90;;;;;;5071287;28;20468;-79
2022/04/22 03:45:58;;;;;;;11.57;8.25;;;10.70;66.80;;;;;;5071703;28;20457;-74
2022/04/22 03:48:24;;;;;;;11.30;8.75;;;10.80;67.10;;;;;;5071406;28;20131;-74
2022/04/22 03:50:50;;;;;;;13.88;8.82;;;10.80;66.60;;;;;;5071280;28;20111;-75
2022/04/22 03:53:16;;;;;;;12.02;8.75;;;10.80;66.40;;;;;;5071496;28;20024;-75
2022/04/22 03:55:43;;;;;;;12.02;9.30;;;10.80;66.30;;;;;;5052954;28;20035;-75
2022/04/22 03:58:12;;;;;;;11.75;8.75;;;10.80;66.20;;;;;;5071066;28;20033;-75
2022/04/22 04:00:46;;;;;;;11.73;9.07;;;10.80;66.50;;;;;;5070559;28;20097;-74
2022/04/22 04:03:23;;;;;;;12.23;9.70;;;10.80;66.30;;;;;;5071436;28;20025;-74
2022/04/22 04:05:51;;;;;;;14.88;9.65;;;10.90;65.80;;;;;;5077715;28;20023;-75
2022/04/22 04:08:18;;;;;;;14.45;9.98;;;10.90;65.60;;;;;;5091365;28;20020;-76
2022/04/22 04:16:12;;;;;;;13.82;9.98;;;10.90;65.10;;;;;;5091194;28;20054;-74
2022/04/22 04:18:39;;;;;;;12.80;9.50;;;10.90;64.30;;;;;;5088003;28;20017;-74
2022/04/22 04:23:51;;;;;;;12.80;9.65;;;10.90;64.20;;;;;;5070413;28;20539;-75
2022/04/22 04:26:18;;;;;;;14.48;10.43;;;10.90;64.00;;;;;;5071277;28;20096;-74
2022/04/22 04:28:47;;;;;;;12.95;10.35;;;10.90;64.10;;;;;;5070614;28;20077;-75
2022/04/22 04:31:13;;;;;;;14.10;10.05;;;10.90;64.20;;;;;;5071068;28;20029;-75
2022/04/22 04:33:40;;;;;;;13.52;10.15;;;11.00;64.20;;;;;;5070642;28;20052;-74
2022/04/22 04:36:09;;;;;;;15.88;9.63;;;11.00;64.20;;;;;;5071170;28;20028;-75
2022/04/22 04:38:39;;;;;;;15.43;10.35;;;11.00;64.70;;;;;;5071089;28;20491;-74
2022/04/22 04:41:07;;;;;;;12.27;10.07;;;11.00;64.80;;;;;;5070901;28;20035;-74
2022/04/22 04:43:34;;;;;;;15.98;9.77;;;11.00;64.50;;;;;;5075902;28;20024;-74
2022/04/22 04:46:00;;;;;;;13.75;10.50;;;11.00;64.30;;;;;;5091466;28;20096;-75
2022/04/22 04:48:25;;;;;;;16.20;10.80;;;11.00;64.10;;;;;;5091990;28;20039;-74
2022/04/22 04:50:51;;;;;;;14.25;10.82;;;11.00;63.80;;;;;;5089714;28;20068;-74
2022/04/22 04:53:19;;;;;;;18.25;11.25;;;10.90;64.70;;;;;;5094007;28;20035;-74
2022/04/22 04:55:46;;;;;;;14.50;11.32;;;10.90;65.30;;;;;;5094073;28;20039;-74
2022/04/22 04:58:12;;;;;;;13.70;10.98;;;10.80;66.10;;;;;;5094677;28;20047;-74
2022/04/22 05:00:38;;;;;;;15.73;12.20;;;10.80;66.10;;;;;;5077780;28;20465;-77
2022/04/22 05:03:05;;;;;;;17.02;11.57;;;10.80;66.70;;;;;;5090324;28;20028;-74
2022/04/22 05:05:30;;;;;;;16.85;12.23;;;10.80;66.60;;;;;;5056339;28;20031;-75
2022/04/22 05:07:59;;;;;;;14.15;11.35;;;10.70;66.50;;;;;;5074067;28;20377;-75
2022/04/22 05:10:31;;;;;;;16.38;12.40;;;10.70;66.40;;;;;;5073987;28;20111;-75
2022/04/22 05:12:57;;;;;;;14.65;11.55;;;10.70;66.70;;;;;;5073330;28;20064;-75
2022/04/22 05:15:25;;;;;;;15.23;11.73;;;10.70;66.90;;;;;;5075065;28;20025;-76
2022/04/22 05:17:52;;;;;;;17.15;11.57;;;10.70;66.80;;;;;;5093056;28;20039;-74
2022/04/22 05:20:20;;;;;;;16.02;11.77;;;10.70;66.70;;;;;;5093503;28;20414;-75
2022/04/22 05:22:46;;;;;;;16.73;12.18;;;10.80;67.20;;;;;;5092816;28;20020;-74
2022/04/22 05:25:13;;;;;;;15.65;11.93;;;10.80;67.90;;;;;;5075286;28;20405;-75
2022/04/22 05:27:39;;;;;;;18.60;11.90;;;10.80;67.50;;;;;;5092411;28;20484;-78
2022/04/22 05:32:51;;;;;;;16.35;12.10;;;10.80;66.10;;;;;;5093029;28;20031;-74
2022/04/22 05:35:19;;;;;;;15.15;11.80;;;10.80;66.20;;;;;;5093826;28;20028;-74
2022/04/22 05:37:56;;;;;;;19.15;12.63;;;10.80;64.90;;;;;;5093238;28;20030;-75
2022/04/22 05:40:36;;;;;;;18.77;11.70;;;10.80;65.00;;;;;;5075493;28;20031;-74
2022/04/22 05:43:06;;;;;;;20.42;11.40;;;10.80;64.80;;;;;;5093716;28;20479;-74
2022/04/22 05:45:32;;;;;;;15.90;12.00;;;10.80;65.00;;;;;;5093812;28;20073;-75
2022/04/22 05:47:58;;;;;;;19.52;11.75;;;10.80;64.80;;;;;;5092763;28;20118;-75
2022/04/22 05:50:25;;;;;;;16.25;11.38;;;10.80;65.10;;;;;;5075224;28;20032;-75
2022/04/22 05:52:52;;;;;;;19.77;12.90;;;10.90;64.70;;;;;;5074754;28;20025;-75
2022/04/22 05:55:19;;;;;;;16.85;12.45;;;10.80;64.40;;;;;;5093523;28;20024;-75
2022/04/22 05:57:46;;;;;;;14.88;11.95;;;10.90;64.40;;;;;;5092427;28;20103;-75
2022/04/22 06:00:14;;;;;;;17.30;11.57;;;10.90;64.30;;;;;;5093052;28;20044;-74
2022/04/22 06:02:45;;;;;;;15.68;11.40;;;10.90;64.00;;;;;;5075160;28;20459;-74
2022/04/22 06:05:12;;;;;;;17.87;12.43;;;10.90;64.10;;;;;;5093790;28;20043;-74
2022/04/22 06:07:38;;;;;;;15.88;11.45;;;10.80;63.50;;;;;;5093252;28;20054;-75
2022/04/22 06:12:49;;;;;;;19.50;12.75;;;10.90;64.10;;;;;;5090806;28;20035;-75
2022/04/22 06:15:29;;;;;;;18.50;12.73;;;10.80;64.60;;;;;;5145998;27;20160;-75
2022/04/22 06:17:56;;;;;;;22.20;13.10;;;10.80;65.40;;;;;;5129302;28;20127;-75
2022/04/22 06:20:22;;;;;;;17.02;13.30;;;10.80;66.30;;;;;;5129837;28;20448;-76
2022/04/22 06:22:48;;;;;;;18.40;13.80;;;10.80;67.10;;;;;;5129606;28;20024;-74
2022/04/22 06:25:13;;;;;;;21.45;13.75;;;10.70;67.90;;;;;;5130004;28;20029;-75
2022/04/22 06:27:42;;;;;;;19.70;13.48;;;10.70;68.50;;;;;;5129941;28;20080;-74
2022/04/22 06:30:11;;;;;;;21.35;14.35;;;10.60;68.60;;;;;;5130044;27;20046;-74
2022/04/22 06:32:38;;;;;;;20.45;13.05;;;10.60;69.10;;;;;;5129844;27;20023;-75
2022/04/22 06:35:06;;;;;;;18.20;13.00;;;10.50;69.00;;;;;;5129226;28;20125;-75
2022/04/22 06:37:40;;;;;;;20.25;13.27;;;10.50;69.70;;;;;;5129889;27;20024;-75
2022/04/22 06:45:47;;;;;;;17.88;13.85;;;10.30;71.00;;;;;;5129331;28;20517;-74
2022/04/22 06:48:32;;;;;;;18.40;15.05;;;10.20;71.90;;;;;;5129462;27;20050;-75
2022/04/22 06:51:00;;;;;;;19.67;14.40;;;10.30;72.60;;;;;;5128779;27;20110;-75
2022/04/22 06:53:26;;;;;;;20.00;13.48;;;10.20;72.90;;;;;;5129172;28;20080;-74
2022/04/22 06:55:53;;;;;;;18.80;15.70;;;10.20;73.30;;;;;;5127114;28;20055;-75
2022/04/22 06:58:20;;;;;;;19.73;14.50;;;10.20;74.40;;;;;;5129280;28;20023;-75
2022/04/22 07:00:47;;;;;;;19.58;14.52;;;10.20;74.80;;;;;;5127284;28;20026;-76
2022/04/22 07:03:15;;;;;;;28.40;15.00;;;10.30;75.30;;;;;;5129264;28;20107;-75
2022/04/22 07:05:44;;;;;;;20.75;14.75;;;10.20;74.50;;;;;;5129204;28;20024;-75
2022/04/22 07:08:13;;;;;;;23.40;15.07;;;10.20;74.90;;;;;;5128623;27;20049;-75
2022/04/22 07:10:41;;;;;;;21.55;15.35;;;10.20;75.20;;;;;;5129041;27;20031;-75
2022/04/22 07:13:08;;;;;;;22.88;16.27;;;10.20;76.00;;;;;;5128277;28;20023;-75
2022/04/22 07:15:34;;;;;;;21.25;15.25;;;10.10;76.50;;;;;;5128947;27;20460;-74
2022/04/22 07:18:00;;;;;;;21.50;16.52;;;10.00;78.00;;;;;;5128160;28;20024;-74
2022/04/22 07:20:26;;;;;;;18.35;15.20;;;10.00;78.90;;;;;;5129045;27;20072;-74
2022/04/22 07:22:53;;;;;;;23.52;16.63;;;10.00;79.60;;;;;;5128261;28;20023;-75
2022/04/22 07:25:20;;;;;;;28.25;17.75;;;9.90;80.80;;;;;;5122696;28;20038;-75
2022/04/22 07:27:47;;;;;;;23.63;16.50;;;9.90;82.00;;;;;;5115271;27;20023;-75
2022/04/22 07:30:15;;;;;;;21.42;16.67;;;9.90;82.70;;;;;;5115137;28;20031;-76
2022/04/22 07:32:45;;;;;;;24.17;16.70;;;9.90;83.40;;;;;;5115261;28;20023;-75
2022/04/22 07:35:12;;;;;;;21.05;16.92;;;9.90;84.30;;;;;;5114497;28;20024;-76
2022/04/22 07:37:42;;;;;;;21.63;17.77;;;9.90;84.80;;;;;;5114793;28;20392;-75
2022/04/22 07:40:09;;;;;;;21.33;17.58;;;9.80;84.90;;;;;;5114130;28;20643;-76
2022/04/22 07:42:36;;;;;;;26.27;17.95;;;9.80;86.50;;;;;;5114839;28;20027;-75
2022/04/22 07:47:49;;;;;;;24.65;18.65;;;9.70;87.80;;;;;;5114714;28;20050;-80
2022/04/22 07:50:17;;;;;;;23.48;18.10;;;9.80;88.00;;;;;;5113496;28;20453;-76
2022/04/22 07:52:45;;;;;;;23.27;18.10;;;9.80;89.00;;;;;;5114632;28;20024;-75
2022/04/22 07:55:13;;;;;;;20.42;16.42;;;9.80;89.50;;;;;;5112505;28;20039;-76
2022/04/22 07:57:42;;;;;;;22.17;16.00;;;9.90;87.70;;;;;;5114330;28;20118;-76
2022/04/22 08:00:09;;;;;;;23.88;18.13;;;9.90;87.70;;;;;;5112762;28;20034;-76
2022/04/22 08:02:35;;;;;;;21.25;17.30;;;9.90;88.40;;;;;;5114536;28;20032;-75
2022/04/22 08:05:00;;;;;;;23.17;17.25;;;9.90;88.80;;;;;;5113892;28;20092;-76
2022/04/22 08:07:26;;;;;;;24.58;17.23;;;10.00;89.30;;;;;;5113222;28;20116;-76
2022/04/22 08:09:52;;;;;;;24.58;19.05;;;10.00;89.80;;;;;;5113724;28;20374;-76
2022/04/22 08:12:21;;;;;;;25.80;17.05;;;10.10;89.60;;;;;;5113064;28;20055;-73
2022/04/22 08:14:47;;;;;;;24.55;18.98;;;10.10;90.90;;;;;;5112764;28;20055;-76
2022/04/22 08:17:13;;;;;;;28.45;20.48;;;10.20;91.20;;;;;;5113740;28;20034;-76
2022/04/22 08:19:40;;;;;;;27.52;19.95;;;10.20;91.20;;;;;;5113748;28;20031;-76
2022/04/22 08:22:05;;;;;;;27.33;21.00;;;10.30;91.80;;;;;;5112147;28;20031;-76
2022/04/22 08:24:31;;;;;;;31.50;20.73;;;10.30;91.80;;;;;;5113877;28;20032;-75
2022/04/22 08:26:58;;;;;;;34.28;22.00;;;10.30;91.90;;;;;;5113364;28;20020;-75
2022/04/22 08:29:24;;;;;;;28.88;19.63;;;10.30;91.90;;;;;;5113950;28;20107;-75
2022/04/22 08:31:52;;;;;;;39.90;19.75;;;10.30;91.70;;;;;;5112625;28;20498;-76
2022/04/22 08:34:18;;;;;;;33.03;21.58;;;10.30;91.80;;;;;;5113437;28;20036;-75
2022/04/22 08:36:46;;;;;;;27.23;19.88;;;10.30;91.50;;;;;;5112937;28;20049;-76
2022/04/22 08:39:12;;;;;;;26.15;18.92;;;10.20;92.00;;;;;;5112931;28;20350;-76
2022/04/22 08:41:40;;;;;;;35.30;20.65;;;10.20;92.80;;;;;;5113496;28;20023;-75
2022/04/22 08:52:22;;;;;;;19.02;16.95;;;10.30;93.30;;;;;;5113857;28;20111;-77
2022/04/22 08:54:52;;;;;;;23.65;18.45;;;10.30;93.00;;;;;;5113365;28;20050;-75
2022/04/22 08:57:22;;;;;;;24.42;17.55;;;10.20;93.10;;;;;;5112646;28;20023;-76
2022/04/22 08:59:49;;;;;;;21.92;18.17;;;10.30;93.30;;;;;;5111913;28;20123;-76
2022/04/22 09:02:20;;;;;;;24.58;18.67;;;10.20;92.90;;;;;;5112749;28;20027;-76
2022/04/22 09:04:46;;;;;;;30.33;18.10;;;10.20;93.60;;;;;;5113529;28;20032;-76
2022/04/22 09:07:13;;;;;;;28.55;17.80;;;10.20;93.80;;;;;;5112687;28;20024;-76
2022/04/22 09:09:42;;;;;;;22.23;17.05;;;10.30;94.20;;;;;;5112015;28;20027;-76
2022/04/22 09:14:56;;;;;;;19.67;17.40;;;10.30;94.00;;;;;;5112757;28;20412;-76
2022/04/22 09:17:26;;;;;;;20.52;17.38;;;10.30;94.20;;;;;;5113354;28;20027;-76
2022/04/22 09:19:53;;;;;;;22.13;17.63;;;10.30;94.30;;;;;;5111531;28;20031;-76
2022/04/22 09:22:23;;;;;;;21.00;18.75;;;10.30;94.60;;;;;;5112302;28;20027;-76
2022/04/22 09:24:51;;;;;;;22.33;19.42;;;10.30;94.70;;;;;;5112855;28;20038;-76
2022/04/22 09:27:17;;;;;;;24.00;19.00;;;10.30;95.00;;;;;;5112286;28;20059;-77
2022/04/22 09:29:51;;;;;;;22.65;18.75;;;10.30;95.80;;;;;;5112836;28;20026;-77
2022/04/22 09:32:27;;;;;;;21.70;19.17;;;10.30;96.60;;;;;;5112114;28;20272;-76
2022/04/22 09:35:09;;;;;;;22.88;18.55;;;10.30;96.80;;;;;;5112697;28;20035;-75
2022/04/22 09:43:35;;;;;;;26.83;18.13;;;10.50;96.60;;;;;;5112528;28;20084;-76
2022/04/22 09:46:02;;;;;;;23.00;19.27;;;10.50;97.10;;;;;;5111995;28;20019;-76
2022/04/22 09:48:44;;;;;;;26.13;19.92;;;10.50;97.10;;;;;;5112163;28;20456;-77
2022/04/22 09:51:32;;;;;;;20.67;18.48;;;10.60;97.10;;;;;;5111875;28;20030;-77
2022/04/22 09:54:02;;;;;;;26.08;21.13;;;10.60;97.20;;;;;;5112288;28;20460;-80
2022/04/22 09:56:28;;;;;;;24.20;21.10;;;10.60;97.20;;;;;;5112247;28;20055;-77
2022/04/22 09:58:54;;;;;;;23.27;19.58;;;10.60;97.60;;;;;;5112213;28;20077;-77
2022/04/22 10:01:19;;;;;;;26.67;20.95;;;10.60;96.80;;;;;;5111329;28;20031;-77
2022/04/22 10:03:46;;;;;;;24.67;21.23;;;10.60;97.50;;;;;;5111825;28;20069;-76
2022/04/22 10:06:12;;;;;;;22.70;19.52;;;10.60;97.90;;;;;;5111254;28;20401;-77
2022/04/22 10:08:39;;;;;;;21.98;19.73;;;10.60;98.20;;;;;;5111848;28;20055;-77
2022/04/22 10:11:06;;;;;;;26.60;21.27;;;10.70;97.90;;;;;;5109836;28;20041;-77
2022/04/22 10:13:46;;;;;;;24.13;21.52;;;10.70;98.50;;;;;;5110440;28;20113;-77
2022/04/22 10:16:12;;;;;;;27.52;20.95;;;10.70;98.20;;;;;;5110237;28;20161;-77
2022/04/22 10:18:39;;;;;;;24.08;20.52;;;10.70;98.80;;;;;;5112188;28;20023;-77
2022/04/22 10:21:06;;;;;;;23.40;20.98;;;10.70;98.80;;;;;;5111552;28;20046;-77
2022/04/22 10:23:32;;;;;;;24.67;22.02;;;10.80;99.20;;;;;;5112121;28;20104;-77
2022/04/22 10:25:59;;;;;;;23.83;21.33;;;10.80;99.70;;;;;;5112018;28;20035;-77
2022/04/22 10:28:27;;;;;;;24.33;21.27;;;10.80;99.90;;;;;;5111666;28;20020;-77
2022/04/22 10:31:00;;;;;;;24.58;21.42;;;10.80;99.90;;;;;;5111962;28;20118;-78
2022/04/22 10:33:27;;;;;;;24.00;20.67;;;10.80;99.90;;;;;;5110212;28;20036;-78
2022/04/22 10:36:02;;;;;;;24.63;22.05;;;10.90;99.90;;;;;;5110656;28;20035;-76
2022/04/22 10:38:32;;;;;;;27.30;21.65;;;10.90;99.90;;;;;;5112349;28;20514;-77
2022/04/22 10:41:01;;;;;;;23.73;21.27;;;10.90;99.90;;;;;;5112054;28;20066;-77
2022/04/22 10:43:28;;;;;;;23.20;20.75;;;10.90;99.90;;;;;;5110866;28;20115;-77
2022/04/22 10:48:40;;;;;;;25.08;21.10;;;10.90;99.90;;;;;;5111608;28;20144;-77
2022/04/22 10:51:09;;;;;;;23.33;20.80;;;10.90;99.90;;;;;;5110917;28;20027;-78
2022/04/22 10:53:48;;;;;;;23.17;20.73;;;10.90;99.90;;;;;;5110359;28;20035;-77
2022/04/22 10:56:26;;;;;;;26.85;20.92;;;10.90;99.90;;;;;;5109838;28;20023;-77
2022/04/22 10:59:20;;;;;;;21.42;19.13;;;10.90;99.90;;;;;;5110268;28;20028;-77
2022/04/22 11:01:47;;;;;;;22.92;20.08;;;10.90;99.90;;;;;;5114457;28;20110;-77
2022/04/22 11:04:24;;;;;;;21.48;18.88;;;10.90;99.90;;;;;;5114601;28;20028;-77
2022/04/22 11:06:50;;;;;;;23.05;20.42;;;10.90;99.90;;;;;;5114060;28;20119;-77
2022/04/22 11:09:31;;;;;;;22.35;19.70;;;10.90;99.90;;;;;;5114557;28;20476;-77
2022/04/22 11:11:58;;;;;;;;;;;10.90;99.90;;;;;;5116006;28;20115;-77
2022/04/22 11:14:31;;;;;;;21.42;19.23;;;10.90;99.90;;;;;;5114113;28;20228;-76
2022/04/22 11:17:36;;;;;;;20.83;18.58;;;10.90;99.90;;;;;;5115321;27;20107;-77
2022/04/22 11:20:01;;;;;;;20.58;18.45;;;10.90;99.90;;;;;;5115300;28;20023;-77
2022/04/22 11:22:58;;;;;;;20.85;18.70;;;10.90;99.90;;;;;;5114229;28;20020;-77
2022/04/22 11:25:29;;;;;;;20.77;18.58;;;11.00;99.90;;;;;;5114469;28;20023;-77
2022/04/22 11:27:58;;;;;;;18.63;16.73;;;11.00;99.90;;;;;;5113654;28;20480;-77
2022/04/22 11:30:27;;;;;;;19.48;17.35;;;11.00;99.90;;;;;;5112909;28;20428;-76
2022/04/22 11:33:02;;;;;;;20.45;18.17;;;11.00;99.90;;;;;;5115013;28;20024;-78
2022/04/22 11:35:34;;;;;;;20.73;18.63;;;11.00;99.90;;;;;;5114130;28;20111;-77
2022/04/22 11:38:06;;;;;;;21.85;18.85;;;11.00;99.90;;;;;;5113575;28;20165;-77
2022/04/22 11:40:37;;;;;;;21.08;18.77;;;10.90;99.90;;;;;;5113522;28;20104;-77
2022/04/22 11:43:21;;;;;;;21.48;19.25;;;10.90;99.90;;;;;;5113558;28;20035;-77
2022/04/22 11:45:49;;;;;;;22.02;19.33;;;10.90;99.90;;;;;;5114563;28;20464;-77
2022/04/22 11:48:22;;;;;;;20.63;18.15;;;11.00;99.90;;;;;;5114057;28;20024;-77
2022/04/22 11:50:49;;;;;;;18.90;16.90;;;11.00;99.90;;;;;;5114677;28;20046;-78
2022/04/22 11:53:17;;;;;;;19.65;17.55;;;10.90;99.90;;;;;;5113587;28;20460;-77
2022/04/22 11:55:44;;;;;;;19.90;17.85;;;10.90;99.90;;;;;;5114613;28;20106;-77
2022/04/22 11:58:16;;;;;;;22.95;20.23;;;10.90;99.90;;;;;;5113999;28;20077;-77
2022/04/22 12:06:39;;;;;;;19.38;17.33;;;10.70;99.90;;;;;;5051268;28;20029;-77
2022/04/22 12:09:06;;;;;;;18.77;16.88;;;10.70;99.90;;;;;;5050889;28;20025;-77
2022/04/22 12:11:41;;;;;;;18.42;16.52;;;10.70;99.90;;;;;;5081781;28;20036;-77
2022/04/22 12:14:07;;;;;;;21.90;18.75;;;10.70;99.90;;;;;;5112370;28;20134;-77
2022/04/22 12:16:33;;;;;;;19.75;16.90;;;10.70;99.90;;;;;;5113769;28;20027;-77
2022/04/22 12:19:00;;;;;;;20.63;18.55;;;10.60;99.90;;;;;;5112829;28;20073;-77
2022/04/22 12:21:30;;;;;;;23.00;19.02;;;10.60;99.90;;;;;;5113547;28;20099;-76
2022/04/22 12:24:02;;;;;;;20.90;17.30;;;10.60;99.90;;;;;;5113437;28;20055;-78
2022/04/22 12:26:36;;;;;;;20.63;18.48;;;10.60;99.90;;;;;;5113059;28;20040;-77
2022/04/22 12:29:15;;;;;;;22.27;18.27;;;10.60;99.90;;;;;;5112639;28;20114;-77
2022/04/22 12:31:50;;;;;;;21.02;18.25;;;10.60;99.90;;;;;;5112662;28;20023;-77
2022/04/22 12:34:30;;;;;;;21.50;18.23;;;10.50;99.90;;;;;;5113343;28;20035;-77
2022/04/22 12:37:00;;;;;;;19.38;16.90;;;10.50;99.90;;;;;;5113893;28;20357;-76
2022/04/22 12:39:46;;;;;;;20.27;18.25;;;10.50;99.90;;;;;;5113407;28;20107;-77
2022/04/22 12:42:17;;;;;;;20.52;18.33;;;10.40;99.90;;;;;;5113370;28;20131;-78
2022/04/22 12:52:08;;;;;;;19.50;17.45;;;10.40;99.90;;;;;;5112320;28;20104;-77
2022/04/22 12:53:34;;;;;;;19.83;17.80;;;10.40;99.90;;;;;;5112870;28;20038;-77
2022/04/22 12:56:04;;;;;;;19.55;17.33;;;10.40;99.90;;;;;;5113412;28;20023;-78
2022/04/22 12:58:32;;;;;;;18.33;16.42;;;10.40;99.90;;;;;;5112534;28;20437;-76
2022/04/22 13:00:58;;;;;;;18.80;16.77;;;10.40;99.90;;;;;;5112264;28;20028;-77
2022/04/22 13:03:36;;;;;;;19.33;17.52;;;10.40;99.90;;;;;;5111285;28;20024;-77
2022/04/22 13:06:02;;;;;;;20.13;18.05;;;10.50;99.90;;;;;;5113162;28;20024;-77
2022/04/22 13:08:28;;;;;;;19.75;16.95;;;10.50;99.90;;;;;;5112341;28;20034;-77
2022/04/22 13:10:57;;;;;;;19.05;17.00;;;10.50;99.90;;;;;;5113204;28;20024;-77
2022/04/22 13:13:23;;;;;;;19.75;16.60;;;10.50;99.90;;;;;;5112343;28;20044;-77
2022/04/22 13:15:49;;;;;;;21.30;17.05;;;10.50;99.90;;;;;;5112878;28;20064;-77
2022/04/22 13:18:15;;;;;;;21.08;17.25;;;10.50;99.90;;;;;;5112529;28;20024;-78
2022/04/22 13:20:40;;;;;;;19.70;17.52;;;10.60;99.90;;;;;;5111588;28;20023;-77
2022/04/22 13:23:07;;;;;;;18.75;16.40;;;10.60;99.90;;;;;;5112449;28;20030;-77
2022/04/22 13:25:33;;;;;;;19.88;17.25;;;10.60;99.90;;;;;;5112487;28;20055;-77
2022/04/22 13:27:58;;;;;;;20.25;16.40;;;10.60;99.90;;;;;;5112936;28;20072;-77
2022/04/22 13:30:25;;;;;;;18.73;16.73;;;10.60;99.90;;;;;;5112440;28;20336;-76
2022/04/22 13:32:50;;;;;;;19.55;16.08;;;10.60;99.90;;;;;;5111629;28;20024;-76
2022/04/22 13:35:16;;;;;;;17.50;15.40;;;10.60;99.90;;;;;;5112217;28;20224;-76
2022/04/22 13:37:42;;;;;;;18.45;16.02;;;10.60;99.90;;;;;;5112768;28;20080;-75
2022/04/22 13:40:08;;;;;;;19.10;16.08;;;10.60;99.90;;;;;;5112735;28;20023;-76
2022/04/22 13:42:34;;;;;;;18.05;16.15;;;10.60;99.90;;;;;;5112313;28;20267;-77
2022/04/22 13:53:12;;;;;;;17.67;15.60;;;10.60;99.90;;;;;;5112706;28;20164;-75
2022/04/22 13:55:39;;;;;;;18.83;16.52;;;10.60;99.90;;;;;;5111737;28;20122;-77